Latest Weather Observations for Georgetown Airport

IDQ60801

Issued at 7:32 am EST Tuesday 27 October 2020 (issued every 10 minutes, with the page automatically refreshed every 10 minutes)

About weather observations | Map of weather stations | Latest weather observations for QLD | Other Formats
Station Details ID: 030124 Name: GEORGETOWN AIRPORT Lat: -18.30 Lon: 143.53 Height: 301.77 m
Data from the previous 72 hours. | See also: Recent months at Georgetown Airport
Date/Time
EST
Temp
°C
App
Temp
°C
Dew
Point
°C
Rel
Hum
%
Delta-T
°C
Wind Press
QNH
hPa
Press
MSL
hPa
Rain since
9am
mm
Dir  Spd
km/h
Gust
km/h
Spd
kts
Gust
kts
27/07:30am 22.7 25.6 18.3 76 2.8 CALM 0 6 0 3 1014.6 1012.5 6.2
27/07:00am 22.1 25.2 18.7 81 2.2 CALM 0 0 0 0 1014.2 1012.2 6.2
27/06:30am 21.3 23.2 18.5 84 1.8 SSW 6 7 3 4 1014.0 1012.0 6.0
27/06:00am 21.3 24.1 17.9 81 2.1 CALM 0 2 0 1 1013.4 1011.4 6.0
27/05:30am 21.2 23.3 18.0 82 2.0 ESE 4 9 2 5 1012.8 1010.8 5.8
27/05:00am 21.6 22.6 17.8 79 2.4 E 9 11 5 6 1013.2 1011.2 5.6
27/04:30am 21.6 22.7 18.0 80 2.3 S 9 11 5 6 1012.9 1010.9 5.6
27/04:00am 21.9 23.3 18.7 82 2.0 SSE 9 13 5 7 1013.2 1011.2 5.4
27/03:30am 21.7 23.4 19.4 87 1.5 S 9 11 5 6 1013.1 1011.1 5.2
27/03:00am 21.5 23.7 19.2 87 1.5 S 6 9 3 5 1013.2 1011.2 5.2
27/02:30am 21.5 23.8 19.4 88 1.3 SE 6 9 3 5 1013.4 1011.4 5.0
27/02:00am 21.6 23.7 19.0 85 1.7 SE 6 11 3 6 1013.1 1011.1 4.8
27/01:30am 21.8 25.1 19.9 89 1.2 ESE 2 6 1 3 1013.2 1011.2 4.6
27/01:00am 21.7 24.2 20.2 91 1.0 ENE 7 9 4 5 1013.2 1011.2 4.4
27/12:30am 21.6 24.6 19.3 87 1.5 WNW 2 6 1 3 1013.6 1011.6 4.4
27/12:00am 21.5 23.1 20.0 91 1.0 WSW 11 13 6 7 1014.4 1012.3 4.2
 
Date/Time
EST
Temp
°C
App
Temp
°C
Dew
Point
°C
Rel
Hum
%
Delta-T
°C
Wind Press
QNH
hPa
Press
MSL
hPa
Rain since
9am
mm
Dir  Spd
km/h
Gust
km/h
Spd
kts
Gust
kts
26/11:30pm 21.5 24.6 19.6 89 1.2 E 2 9 1 5 1014.4 1012.3 4.0
26/11:00pm 21.7 24.2 19.8 89 1.2 NNE 6 11 3 6 1014.5 1012.4 3.8
26/10:30pm 21.7 23.9 19.6 88 1.4 ENE 7 11 4 6 1014.8 1012.7 3.6
26/10:00pm 22.1 24.1 20.7 92 0.9 ENE 11 17 6 9 1014.8 1012.7 3.4
26/09:30pm 22.3 24.3 20.0 87 1.5 NNW 9 15 5 8 1014.9 1012.9 3.2
26/09:00pm 22.3 24.3 20.0 87 1.5 N 9 13 5 7 1014.6 1012.5 3.0
26/08:30pm 22.4 24.3 19.8 85 1.7 N 9 13 5 7 1015.0 1013.0 2.6
26/08:00pm 22.7 25.0 19.5 82 2.1 NNE 6 11 3 6 1013.8 1011.8 2.4
26/07:30pm 22.8 23.7 19.2 80 2.3 S 13 20 7 11 1013.3 1011.3 2.2
26/07:00pm 23.3 23.8 19.2 78 2.6 S 15 24 8 13 1012.5 1010.5 1.8
26/06:30pm 22.9 25.0 20.2 85 1.8 S 9 17 5 9 1011.8 1009.7 1.4
26/06:00pm 24.1 26.8 19.4 75 3.0 ESE 4 9 2 5 1011.5 1009.4 0.8
26/05:30pm 24.2 25.4 18.2 69 3.8 SSE 9 15 5 8 1011.4 1009.3 0.2
26/05:00pm 24.0 24.0 18.2 70 3.7 NE 15 22 8 12 1010.6 1008.6 0.0
26/04:30pm 24.0 23.5 16.8 64 4.5 WNW 15 22 8 12 1010.4 1008.4 0.0
26/04:00pm 24.0 22.9 16.3 62 4.8 NNW 17 24 9 13 1010.4 1008.4 0.0
26/03:32pm 24.5 21.0 15.4 57 5.6 WSW 28 46 15 25 1010.1 1008.1 0.0
26/03:30pm 24.4 20.4 15.3 57 5.5 WSW 30 46 16 25 1010.0 1008.0 0.0
26/03:10pm 26.8 23.2 15.2 49 7.1 WSW 28 46 15 25 1009.1 1007.1 0.0
26/03:00pm 28.2 24.4 14.8 44 8.2 W 28 44 15 24 1009.0 1007.0 0.0
26/02:58pm 28.6 25.5 14.4 41 8.7 WNW 24 44 13 24 1008.8 1006.7 0.0
26/02:30pm 33.1 31.8 13.7 31 11.9 NNE 13 22 7 12 1008.6 1006.5 0.0
26/02:00pm 34.2 32.5 14.7 31 12.2 NNE 17 30 9 16 1008.7 1006.6 0.0
26/01:30pm 34.8 33.3 14.1 28 12.9 N 15 22 8 12 1009.6 1007.6 0.0
26/01:00pm 34.0 34.5 15.5 33 11.7 NE 7 17 4 9 1010.5 1008.5 0.0
26/12:30pm 33.7 33.1 15.7 34 11.4 NNE 13 20 7 11 1011.1 1009.0 0.0
26/12:00pm 33.9 34.3 16.3 35 11.3 NNE 9 17 5 9 1011.7 1009.6 0.0
26/11:30am 31.9 31.7 15.8 38 10.2 N 11 20 6 11 1012.2 1010.2 0.0
26/11:00am 31.5 31.5 16.3 40 9.6 NNW 11 20 6 11 1012.7 1010.7 0.0
26/10:30am 31.3 31.6 16.9 42 9.2 N 11 19 6 10 1013.0 1011.0 0.0
26/10:00am 30.6 30.5 17.0 44 8.7 NNE 13 20 7 11 1013.1 1011.1 0.0
26/09:30am 29.4 29.4 17.2 47 7.8 N 13 20 7 11 1013.5 1011.5 0.0
26/09:00am 28.0 27.2 17.2 52 6.9 N 17 22 9 12 1013.4 1011.4 0.0
26/08:30am 27.8 27.5 17.3 52 6.7 N 15 20 8 11 1013.3 1011.3 0.0
26/08:00am 26.4 27.1 18.0 60 5.4 NNE 11 17 6 9 1013.2 1011.2 0.0
26/07:30am 25.3 25.7 18.2 64 4.5 N 13 20 7 11 1013.0 1011.0 0.0
26/07:00am 24.7 25.6 18.4 68 4.0 NNE 11 13 6 7 1012.8 1010.8 0.0
26/06:30am 23.8 24.2 18.2 71 3.6 NNE 13 17 7 9 1012.4 1010.4 0.0
26/06:00am 23.7 24.8 18.1 71 3.6 N 9 15 5 8 1011.9 1009.9 0.0
26/05:30am 24.0 24.3 18.0 69 3.8 NNE 13 15 7 8 1011.5 1009.4 0.0
26/05:00am 24.4 24.3 17.9 67 4.1 NNE 15 20 8 11 1011.1 1009.0 0.0
26/04:30am 24.7 25.2 18.4 68 4.0 NE 13 17 7 9 1010.5 1008.5 0.0
26/04:00am 24.0 25.5 17.5 67 4.1 E 6 9 3 5 1010.2 1008.2 0.0
26/03:30am 23.8 25.2 17.3 67 4.1 E 6 7 3 4 1010.3 1008.3 0.0
26/03:00am 24.6 25.8 16.8 62 4.9 ESE 6 9 3 5 1010.1 1008.1 0.0
26/02:30am 24.8 25.8 16.8 61 5.0 ESE 7 13 4 7 1010.2 1008.2 0.0
26/02:00am 24.9 25.7 16.3 59 5.3 WSW 7 7 4 4 1010.6 1008.6 0.0
26/01:30am 25.4 27.8 17.1 60 5.2 CALM 0 0 0 0 1010.7 1008.7 0.0
26/01:00am 27.1 27.8 16.1 51 6.9 SSE 7 11 4 6 1010.6 1008.6 0.0
26/12:30am 27.3 28.0 16.0 50 7.0 SSW 7 11 4 6 1010.7 1008.7 0.0
26/12:00am 27.9 28.6 16.2 49 7.3 SSW 7 11 4 6 1011.1 1009.0 0.0
 
Date/Time
EST
Temp
°C
App
Temp
°C
Dew
Point
°C
Rel
Hum
%
Delta-T
°C
Wind Press
QNH
hPa
Press
MSL
hPa
Rain since
9am
mm
Dir  Spd
km/h
Gust
km/h
Spd
kts
Gust
kts
25/11:30pm 28.1 28.2 16.4 49 7.3 SSW 11 22 6 12 1011.4 1009.3 0.0
25/11:00pm 27.6 29.3 17.2 53 6.6 SW 4 9 2 5 1011.6 1009.5 0.0
25/10:30pm 27.7 29.7 16.0 49 7.3 CALM 0 0 0 0 1011.5 1009.4 0.0
25/10:00pm 27.8 29.3 16.7 50 7.0 N 4 7 2 4 1011.6 1009.5 0.0
25/09:30pm 28.4 28.7 14.6 43 8.4 SW 6 9 3 5 1011.0 1008.9 0.0
25/09:00pm 29.7 29.9 14.3 39 9.4 SW 6 7 3 4 1010.6 1008.6 0.0
25/08:30pm 28.4 29.0 16.7 49 7.4 WSW 9 13 5 7 1010.3 1008.3 0.0
25/08:00pm 29.2 30.2 16.4 46 8.1 SW 6 7 3 4 1009.8 1007.8 0.0
25/07:30pm 30.7 30.7 14.3 36 10.1 W 7 9 4 5 1009.3 1007.3 0.0
25/07:00pm 31.4 31.2 13.6 33 10.9 W 7 9 4 5 1008.8 1006.7 0.0
25/06:30pm 33.0 32.1 13.6 31 11.9 W 11 15 6 8 1008.4 1006.3 0.0
25/06:00pm 34.5 32.5 11.6 25 13.7 WSW 13 20 7 11 1008.3 1006.2 0.0
25/05:30pm 35.4 33.8 11.7 23 14.3 W 11 20 6 11 1008.1 1006.0 0.0
25/05:00pm 35.8 33.8 12.7 25 14.1 W 15 24 8 13 1008.0 1005.9 0.0
25/04:30pm 36.3 34.4 13.1 25 14.3 WNW 15 20 8 11 1008.1 1006.0 0.0
25/04:00pm 36.1 34.2 11.7 23 14.7 SW 13 24 7 13 1008.4 1006.3 0.0
25/03:30pm 35.8 34.0 12.1 24 14.4 W 13 20 7 11 1008.7 1006.6 0.0
25/03:00pm 35.0 34.8 14.8 29 12.7 NNE 9 19 5 10 1009.1 1007.1 0.0
25/02:30pm 33.8 33.5 14.3 31 12.1 W 9 15 5 8 1009.6 1007.6 0.0
25/02:00pm 34.6 33.6 14.5 30 12.6 WNW 13 20 7 11 1010.1 1008.1 0.0
25/01:30pm 34.7 33.9 15.1 31 12.3 W 13 33 7 18 1010.5 1008.5 0.0
25/01:00pm 35.3 34.1 15.1 30 12.8 NW 15 28 8 15 1011.2 1009.1 0.0
25/12:30pm 33.8 34.0 15.7 33 11.5 NE 9 22 5 12 1011.9 1009.9 0.0
25/12:00pm 32.7 31.6 14.3 32 11.4 WNW 13 24 7 13 1012.4 1010.4 0.0
25/11:30am 32.4 31.9 15.0 35 10.9 W 11 19 6 10 1012.8 1010.8 0.0
25/11:00am 32.4 32.6 15.8 36 10.5 WSW 9 20 5 11 1013.2 1011.2 0.0
25/10:30am 30.8 30.8 15.2 38 9.7 SW 9 17 5 9 1013.6 1011.6 0.0
25/10:00am 30.1 30.7 16.9 45 8.4 SW 9 19 5 10 1014.1 1012.1 0.0
25/09:30am 29.0 31.2 17.5 49 7.4 W 2 15 1 8 1014.4 1012.3 0.0
25/09:00am 28.2 29.7 18.0 54 6.6 WSW 7 11 4 6 1014.5 1012.4 0.0
25/08:30am 27.1 28.2 18.1 58 5.8 W 9 15 5 8 1014.7 1012.6 0.0
25/08:00am 26.1 28.1 18.8 64 4.7 WSW 6 7 3 4 1014.1 1012.1 0.0
25/07:30am 25.0 26.8 18.7 68 4.1 WSW 7 9 4 5 1014.0 1012.0 0.0
25/07:00am 23.6 25.9 19.5 78 2.7 S 6 9 3 5 1013.7 1011.7 0.0
25/06:30am 22.5 24.6 19.3 82 2.1 S 7 9 4 5 1013.2 1011.2 0.0
25/06:00am 22.1 24.1 19.1 83 1.9 S 7 9 4 5 1012.6 1010.6 0.0
25/05:30am 21.7 24.1 18.7 83 1.9 SE 4 7 2 4 1012.2 1010.2 0.0
25/05:00am 22.4 25.4 18.4 78 2.5 CALM 0 0 0 0 1011.7 1009.6 0.0
25/04:30am 23.3 25.0 18.4 74 3.1 N 7 11 4 6 1011.3 1009.2 0.0
25/04:00am 23.3 24.5 18.2 73 3.2 N 9 13 5 7 1011.3 1009.2 0.0
25/03:30am 23.5 24.4 18.4 73 3.2 N 11 15 6 8 1011.1 1009.0 0.0
25/03:00am 23.0 24.2 18.3 75 3.0 N 9 11 5 6 1010.9 1008.8 0.0
25/02:30am 22.7 25.0 18.5 77 2.7 NNE 4 7 2 4 1010.6 1008.6 0.0
25/02:00am 22.9 25.6 17.8 73 3.2 CALM 0 0 0 0 1011.2 1009.1 0.0
25/01:30am 23.2 25.0 17.4 70 3.6 SSW 4 7 2 4 1011.6 1009.5 0.0
25/01:00am 23.5 25.6 17.3 68 3.9 S 2 9 1 5 1012.1 1010.1 0.0
25/12:30am 23.8 25.2 17.3 67 4.1 SSW 6 11 3 6 1012.3 1010.3 0.0
25/12:00am 23.9 24.7 17.2 66 4.2 S 9 15 5 8 1012.6 1010.6 0.0
 
Date/Time
EST
Temp
°C
App
Temp
°C
Dew
Point
°C
Rel
Hum
%
Delta-T
°C
Wind Press
QNH
hPa
Press
MSL
hPa
Rain since
9am
mm
Dir  Spd
km/h
Gust
km/h
Spd
kts
Gust
kts
24/11:30pm 23.9 23.6 17.4 67 4.1 SSE 15 26 8 14 1012.8 1010.8 0.0
24/11:00pm 24.1 23.2 18.1 69 3.8 S 20 32 11 17 1013.0 1011.0 0.0
24/10:30pm 27.7 27.6 17.8 54 6.3 WSW 15 24 8 13 1013.0 1011.0 0.0
24/10:00pm 27.7 27.1 18.4 57 6.0 WSW 19 30 10 16 1012.9 1010.9 0.0
24/09:30pm 28.2 27.8 18.9 57 6.1 W 19 26 10 14 1012.3 1010.3 0.0
24/09:00pm 28.8 29.5 18.9 55 6.5 WNW 13 20 7 11 1011.8 1009.7 0.0
24/08:30pm 28.9 30.3 18.7 54 6.6 WNW 9 15 5 8 1011.0 1008.9 0.0
24/08:00pm 28.7 30.2 18.8 55 6.5 NW 9 11 5 6 1010.7 1008.7 0.0
24/07:30pm 29.0 30.1 18.1 51 7.0 W 9 13 5 7 1010.3 1008.3 0.0
24/07:00pm 29.8 31.2 17.9 48 7.7 NW 7 11 4 6 1010.1 1008.1 0.0
24/06:30pm 30.4 31.0 17.8 46 8.1 NW 11 17 6 9 1009.9 1007.9 0.0
24/06:00pm 31.5 31.0 17.0 41 9.3 WNW 15 20 8 11 1009.5 1007.5 0.0
24/05:30pm 32.4 31.2 17.1 40 9.8 WNW 19 30 10 16 1009.5 1007.5 0.0
24/05:00pm 32.1 30.6 16.8 40 9.8 NW 20 26 11 14 1009.9 1007.9 0.0
24/04:30pm 32.3 30.2 16.2 38 10.2 NW 22 30 12 16 1009.9 1007.9 0.0
24/04:00pm 32.4 32.0 16.3 38 10.3 N 13 20 7 11 1010.0 1008.0 0.0
24/03:30pm 32.3 31.9 16.2 38 10.2 NNW 13 20 7 11 1010.3 1008.3 0.0
24/03:00pm 32.3 31.9 15.3 35 10.7 N 11 22 6 12 1010.4 1008.4 0.0
24/02:30pm 31.8 31.4 16.1 38 9.9 NE 13 20 7 11 1010.4 1008.4 0.0
24/02:00pm 31.7 31.1 15.6 37 10.1 NNW 13 19 7 10 1010.6 1008.6 0.0
24/01:30pm 31.2 30.8 17.1 42 9.0 NNE 15 24 8 13 1011.3 1009.2 0.0
24/01:00pm 30.5 30.0 16.9 44 8.7 N 15 24 8 13 1011.9 1009.9 0.0
24/12:30pm 30.3 29.7 16.7 44 8.6 NNE 15 28 8 15 1012.5 1010.5 0.0
24/12:00pm 30.0 29.0 17.5 47 8.0 NNE 19 28 10 15 1013.0 1011.0 0.0
24/11:30am 28.8 27.2 16.0 45 8.0 NE 19 28 10 15 1013.5 1011.5 0.0
24/11:00am 28.6 27.2 16.5 48 7.6 NNE 19 32 10 17 1014.0 1012.0 0.0
24/10:30am 27.9 26.1 15.9 48 7.5 NE 20 28 11 15 1014.2 1012.2 0.0
24/10:00am 27.5 25.9 16.5 51 6.9 ENE 20 28 11 15 1014.2 1012.2 0.0
24/09:30am 27.1 25.9 17.0 54 6.4 ENE 19 30 10 16 1014.2 1012.2 0.0
24/09:00am 25.8 24.1 17.2 59 5.4 ENE 22 35 12 19 1014.6 1012.5 20.2
24/08:30am 25.1 24.2 17.8 64 4.6 E 19 33 10 18 1014.8 1012.7 20.2
24/08:00am 23.7 23.2 17.7 69 3.8 E 17 24 9 13 1014.7 1012.6 20.2

Other formats

Comma delimited format used in spreadsheet applications
http://www.bom.gov.au/fwo/IDQ60801/IDQ60801.94274.axf

JavaScript Object Notation format (JSON) in row-major order
http://www.bom.gov.au/fwo/IDQ60801/IDQ60801.94274.json

Data quality

Most of these data are generated automatically and are frequently updated. Quality checks on data are not normally performed. It is possible for incorrect values to appear. Refer to information at About Latest Weather Observations and please check the disclaimer before using these data.